All Spectrum Aviation - Van Nuys Airport - KVNY

HOME

Condor Squadron KVNY Webcam

Visit our Electronics Store

2019/03/20 20:51 KVNY 202051Z 27008KT 240V320 6SM -TSRA BKN038 14/09 A3000 RMK AO2 TSB51 SLP153 P0001 60001 T01440094 58017
LATEST VAN NUYS ATIS IN MP3!
Older ATIS Recordings

Van Nuys Tower recordings

NEW FEATURE: RECORDINGS WITH SILENCE REMOVED!

All in MP3 format. 1 hour long MP3s for each file, 119.3 file is tower only
scan file is 119.0 HELI, 121.7 GROUND, 120.2 TOWER EAST, 126.6 CLEARANCE, 460.525 and 453.375 OPS

Today (2019/03/20) and Yesterday (2019/03/19)